createdAt,value
2018-03-26T00:00:27.363Z,121.00
2018-03-26T00:01:28.075Z,135.00
2018-03-26T00:02:28.786Z,135.00
2018-03-26T00:03:29.497Z,122.00
2018-03-26T00:04:30.210Z,127.00
2018-03-26T00:05:30.922Z,150.00
2018-03-26T00:06:31.632Z,137.00
2018-03-26T00:07:32.354Z,112.00
2018-03-26T00:08:33.067Z,133.00
2018-03-26T00:09:33.780Z,140.00
2018-03-26T00:10:34.492Z,119.00
2018-03-26T00:11:35.205Z,130.00
2018-03-26T00:12:35.916Z,145.00
2018-03-26T00:13:36.628Z,135.00
2018-03-26T00:14:37.340Z,145.00
2018-03-26T00:15:38.051Z,140.00
2018-03-26T00:16:38.762Z,117.00
2018-03-26T00:17:39.472Z,128.00
2018-03-26T00:18:40.184Z,128.00
2018-03-26T00:19:40.900Z,129.00
2018-03-26T00:20:41.609Z,137.00
2018-03-26T00:21:42.335Z,131.00
2018-03-26T00:22:43.052Z,117.00
2018-03-26T00:23:43.772Z,123.00
2018-03-26T00:24:44.498Z,131.00
2018-03-26T00:25:45.210Z,127.00
2018-03-26T00:26:45.919Z,115.00
2018-03-26T00:27:46.647Z,142.00
2018-03-26T00:28:47.357Z,125.00
2018-03-26T00:29:48.092Z,117.00
2018-03-26T00:30:48.794Z,123.00
2018-03-26T00:31:49.522Z,113.00
2018-03-26T00:32:50.246Z,130.00
2018-03-26T00:33:50.959Z,132.00
2018-03-26T00:34:51.707Z,134.00
2018-03-26T00:35:52.408Z,136.00
2018-03-26T00:36:53.120Z,146.00
2018-03-26T00:37:53.843Z,130.00
2018-03-26T00:38:54.557Z,120.00
2018-03-26T00:39:55.268Z,123.00
2018-03-26T00:40:55.981Z,133.00
2018-03-26T00:41:56.708Z,131.00
2018-03-26T00:42:57.422Z,117.00
2018-03-26T00:43:58.131Z,132.00
2018-03-26T00:44:58.841Z,114.00
2018-03-26T00:45:59.565Z,118.00
2018-03-26T00:47:00.278Z,120.00
2018-03-26T00:48:00.988Z,135.00
2018-03-26T00:49:01.702Z,130.00
2018-03-26T00:50:02.414Z,121.00
2018-03-26T00:51:03.125Z,140.00
2018-03-26T00:52:03.849Z,119.00
2018-03-26T00:53:04.561Z,129.00
2018-03-26T00:54:05.271Z,127.00
2018-03-26T00:55:05.982Z,130.00
2018-03-26T00:56:06.693Z,136.00
2018-03-26T00:57:07.404Z,147.00
2018-03-26T00:58:08.118Z,101.00
2018-03-26T00:59:08.830Z,111.00
2018-03-26T01:00:09.556Z,127.00
2018-03-26T01:01:10.281Z,120.00
2018-03-26T01:02:11.005Z,129.00
2018-03-26T01:03:11.731Z,113.00
2018-03-26T01:04:12.444Z,141.00
2018-03-26T01:05:13.157Z,128.00
2018-03-26T01:06:13.868Z,115.00
2018-03-26T01:07:14.578Z,114.00
2018-03-26T01:08:15.291Z,115.00
2018-03-26T01:09:16.001Z,127.00
2018-03-26T01:10:16.712Z,125.00
2018-03-26T01:11:17.422Z,114.00
2018-03-26T01:12:18.148Z,145.00
2018-03-26T01:13:18.860Z,125.00
2018-03-26T01:14:19.592Z,118.00
2018-03-26T01:15:20.298Z,124.00
2018-03-26T01:16:21.008Z,129.00
2018-03-26T01:17:21.719Z,127.00
2018-03-26T01:18:22.430Z,123.00
2018-03-26T01:19:23.141Z,117.00
2018-03-26T01:20:23.850Z,122.00
2018-03-26T01:21:24.585Z,131.00
2018-03-26T01:22:25.288Z,123.00
2018-03-26T01:23:26.000Z,114.00
2018-03-26T01:24:26.714Z,124.00
2018-03-26T01:25:27.427Z,130.00
2018-03-26T01:26:28.139Z,132.00
2018-03-26T01:27:28.862Z,120.00
2018-03-26T01:28:29.573Z,113.00
2018-03-26T01:29:30.299Z,118.00
2018-03-26T01:30:31.011Z,114.00
2018-03-26T01:31:31.729Z,120.00
2018-03-26T01:32:32.436Z,108.00
2018-03-26T01:33:33.147Z,117.00
2018-03-26T01:34:33.859Z,143.00
2018-03-26T01:35:34.570Z,115.00
2018-03-26T01:36:35.280Z,128.00
2018-03-26T01:37:35.992Z,116.00
2018-03-26T01:38:36.703Z,117.00
2018-03-26T01:39:37.413Z,119.00
2018-03-26T01:40:38.125Z,108.00
2018-03-26T01:41:38.836Z,118.00
2018-03-26T01:42:39.548Z,123.00
2018-03-26T01:43:40.261Z,131.00
2018-03-26T01:44:40.986Z,136.00
2018-03-26T01:45:41.697Z,126.00
2018-03-26T01:46:42.410Z,120.00
2018-03-26T01:47:43.122Z,114.00
2018-03-26T01:48:43.835Z,122.00
2018-03-26T01:49:44.559Z,106.00
2018-03-26T01:50:45.271Z,141.00
2018-03-26T01:51:45.982Z,108.00
2018-03-26T01:52:46.692Z,127.00
2018-03-26T01:53:47.402Z,105.00
2018-03-26T01:54:48.112Z,116.00
2018-03-26T01:55:48.823Z,117.00
2018-03-26T01:56:49.533Z,122.00
2018-03-26T01:57:50.258Z,136.00
2018-03-26T01:58:50.984Z,113.00
2018-03-26T01:59:51.696Z,131.00
2018-03-26T02:00:52.406Z,104.00
2018-03-26T02:01:53.131Z,112.00
2018-03-26T02:02:53.842Z,120.00
2018-03-26T02:03:54.555Z,120.00
2018-03-26T02:04:55.266Z,131.00
2018-03-26T02:05:55.991Z,109.00
2018-03-26T02:06:56.702Z,139.00
2018-03-26T02:07:57.427Z,126.00
2018-03-26T02:08:58.138Z,101.00
2018-03-26T02:09:58.851Z,112.00
2018-03-26T02:10:59.564Z,120.00
2018-03-26T02:12:00.277Z,128.00
2018-03-26T02:13:00.986Z,120.00
2018-03-26T02:14:01.695Z,103.00
2018-03-26T02:15:02.420Z,131.00
2018-03-26T02:16:03.145Z,134.00
2018-03-26T02:17:03.874Z,130.00
2018-03-26T02:18:04.581Z,115.00
2018-03-26T02:19:05.291Z,140.00
2018-03-26T02:20:06.004Z,122.00
2018-03-26T02:21:06.715Z,101.00
2018-03-26T02:22:07.428Z,113.00
2018-03-26T02:23:08.139Z,108.00
2018-03-26T02:24:08.849Z,127.00
2018-03-26T02:25:09.560Z,112.00
2018-03-26T02:26:10.269Z,95.00
2018-03-26T02:27:10.982Z,113.00
2018-03-26T02:28:11.693Z,120.00
2018-03-26T02:29:12.403Z,103.00
2018-03-26T02:30:13.119Z,106.00
2018-03-26T02:31:13.842Z,110.00
2018-03-26T02:32:14.560Z,120.00
2018-03-26T02:33:15.273Z,107.00
2018-03-26T02:34:15.984Z,106.00
2018-03-26T02:35:16.703Z,107.00
2018-03-26T02:36:17.404Z,118.00
2018-03-26T02:37:18.114Z,115.00
2018-03-26T02:38:18.828Z,103.00
2018-03-26T02:39:19.534Z,103.00
2018-03-26T02:40:20.253Z,127.00
2018-03-26T02:41:20.952Z,127.00
2018-03-26T02:42:21.679Z,111.00
2018-03-26T02:43:22.389Z,109.00
2018-03-26T02:44:23.098Z,129.00
2018-03-26T02:45:23.807Z,116.00
2018-03-26T02:46:24.518Z,107.00
2018-03-26T02:47:25.228Z,115.00
2018-03-26T02:48:25.937Z,108.00
2018-03-26T02:49:26.650Z,104.00
2018-03-26T02:50:27.360Z,103.00
2018-03-26T02:51:28.071Z,113.00
2018-03-26T02:52:28.783Z,119.00
2018-03-26T02:53:29.494Z,120.00
2018-03-26T02:54:30.205Z,129.00
2018-03-26T02:55:30.916Z,114.00
2018-03-26T02:56:31.641Z,135.00
2018-03-26T02:57:32.354Z,120.00
2018-03-26T02:58:33.065Z,119.00
2018-03-26T02:59:33.778Z,124.00
2018-03-26T03:00:34.486Z,132.00
2018-03-26T03:01:35.200Z,125.00
2018-03-26T03:02:35.906Z,117.00
2018-03-26T03:03:36.618Z,118.00
2018-03-26T03:04:37.326Z,139.00
2018-03-26T03:05:38.050Z,124.00
2018-03-26T03:06:38.762Z,120.00
2018-03-26T03:07:39.471Z,132.00
2018-03-26T03:08:40.197Z,126.00
2018-03-26T03:09:40.907Z,115.00
2018-03-26T03:10:41.617Z,116.00
2018-03-26T03:11:42.326Z,132.00
2018-03-26T03:12:43.037Z,134.00
2018-03-26T03:13:43.747Z,116.00
2018-03-26T03:14:44.459Z,106.00
2018-03-26T03:15:45.171Z,131.00
2018-03-26T03:16:45.881Z,142.00
2018-03-26T03:17:46.607Z,112.00
2018-03-26T03:18:47.334Z,131.00
2018-03-26T03:19:48.043Z,117.00
2018-03-26T03:20:48.754Z,118.00
2018-03-26T03:21:49.464Z,129.00
2018-03-26T03:22:50.175Z,128.00
2018-03-26T03:23:50.886Z,107.00
2018-03-26T03:24:51.599Z,122.00
2018-03-26T03:25:52.311Z,126.00
2018-03-26T03:26:53.023Z,122.00
2018-03-26T03:27:53.730Z,120.00
2018-03-26T03:28:54.457Z,118.00
2018-03-26T03:29:55.166Z,134.00
2018-03-26T03:30:55.879Z,128.00
2018-03-26T03:31:56.603Z,134.00
2018-03-26T03:32:57.313Z,125.00
2018-03-26T03:33:58.023Z,112.00
2018-03-26T03:34:58.733Z,133.00
2018-03-26T03:35:59.444Z,151.00
2018-03-26T03:37:00.154Z,122.00
2018-03-26T03:38:00.881Z,120.00
2018-03-26T03:39:01.592Z,131.00
2018-03-26T03:40:02.316Z,155.00
2018-03-26T03:41:03.027Z,118.00
2018-03-26T03:42:03.736Z,116.00
2018-03-26T03:43:04.447Z,131.00
2018-03-26T03:44:05.157Z,133.00
2018-03-26T03:45:05.884Z,113.00
2018-03-26T03:46:06.595Z,123.00
2018-03-26T03:47:07.304Z,104.00
2018-03-26T03:48:08.021Z,136.00
2018-03-26T03:49:08.727Z,119.00
2018-03-26T03:50:09.437Z,138.00
2018-03-26T03:51:10.159Z,127.00
2018-03-26T03:52:10.869Z,118.00
2018-03-26T03:53:11.593Z,128.00
2018-03-26T03:54:12.305Z,115.00
2018-03-26T03:55:13.026Z,130.00
2018-03-26T03:56:13.735Z,128.00
2018-03-26T03:57:14.447Z,130.00
2018-03-26T03:58:15.156Z,123.00
2018-03-26T03:59:15.879Z,147.00
2018-03-26T04:00:16.587Z,120.00
2018-03-26T04:01:17.299Z,125.00
2018-03-26T04:02:18.007Z,149.00
2018-03-26T04:03:18.729Z,127.00
2018-03-26T04:04:19.437Z,93.00
2018-03-26T04:05:20.147Z,140.00
2018-03-26T04:06:20.858Z,128.00
2018-03-26T04:07:21.816Z,121.00
2018-03-26T04:08:22.528Z,129.00
2018-03-26T04:09:23.237Z,126.00
2018-03-26T04:10:23.945Z,124.00
2018-03-26T04:11:24.655Z,141.00
2018-03-26T04:12:25.616Z,126.00
2018-03-26T04:13:26.327Z,141.00
2018-03-26T04:14:27.037Z,131.00
2018-03-26T04:15:27.746Z,122.00
2018-03-26T04:16:28.462Z,100.00
2018-03-26T04:17:29.166Z,120.00
2018-03-26T04:18:29.874Z,110.00
2018-03-26T04:19:30.584Z,126.00
2018-03-26T04:20:31.292Z,108.00
2018-03-26T04:21:32.036Z,101.00
2018-03-26T04:22:32.711Z,107.00
2018-03-26T04:23:33.432Z,112.00
2018-03-26T04:24:34.142Z,113.00
2018-03-26T04:25:34.854Z,119.00
2018-03-26T04:26:35.577Z,112.00
2018-03-26T04:27:36.290Z,111.00
2018-03-26T04:28:37.001Z,120.00
2018-03-26T04:29:37.713Z,145.00
2018-03-26T04:30:38.433Z,119.00
2018-03-26T04:31:39.157Z,111.00
2018-03-26T04:32:39.865Z,133.00
2018-03-26T04:33:40.576Z,134.00
2018-03-26T04:34:41.285Z,109.00
2018-03-26T04:35:42.008Z,120.00
2018-03-26T04:36:42.729Z,124.00
2018-03-26T04:37:43.441Z,105.00
2018-03-26T04:38:44.152Z,118.00
2018-03-26T04:39:44.861Z,105.00
2018-03-26T04:40:45.571Z,104.00
2018-03-26T04:41:46.280Z,114.00
2018-03-26T04:42:47.004Z,107.00
2018-03-26T04:43:47.730Z,123.00
2018-03-26T04:44:48.449Z,127.00
2018-03-26T04:45:49.157Z,127.00
2018-03-26T04:46:49.867Z,106.00
2018-03-26T04:47:50.574Z,111.00
2018-03-26T04:48:51.284Z,119.00
2018-03-26T04:49:51.994Z,126.00
2018-03-26T04:50:52.701Z,102.00
2018-03-26T04:51:53.425Z,114.00
2018-03-26T04:52:54.136Z,98.00
2018-03-26T04:53:54.846Z,125.00
2018-03-26T04:54:55.554Z,96.00
2018-03-26T04:55:56.278Z,129.00
2018-03-26T04:56:56.989Z,110.00
2018-03-26T04:57:57.699Z,109.00
2018-03-26T04:58:58.411Z,108.00
2018-03-26T04:59:59.122Z,106.00
2018-03-26T05:00:59.831Z,108.00
2018-03-26T05:02:00.541Z,107.00
2018-03-26T05:03:01.252Z,95.00
2018-03-26T05:04:01.963Z,109.00
2018-03-26T05:05:02.679Z,102.00
2018-03-26T05:06:03.381Z,99.00
2018-03-26T05:07:04.090Z,102.00
2018-03-26T05:08:04.802Z,100.00
2018-03-26T05:09:05.530Z,122.00
2018-03-26T05:10:06.236Z,103.00
2018-03-26T05:11:06.946Z,107.00
2018-03-26T05:12:07.657Z,98.00
2018-03-26T05:13:08.364Z,99.00
2018-03-26T05:14:09.076Z,105.00
2018-03-26T05:15:09.785Z,94.00
2018-03-26T05:16:10.494Z,86.00
2018-03-26T05:17:11.205Z,100.00
2018-03-26T05:18:11.917Z,83.00
2018-03-26T05:19:12.629Z,94.00
2018-03-26T05:20:13.339Z,93.00
2018-03-26T05:21:14.049Z,89.00
2018-03-26T05:22:14.761Z,99.00
2018-03-26T05:23:15.470Z,95.00
2018-03-26T05:24:16.181Z,108.00
2018-03-26T05:25:16.892Z,91.00
2018-03-26T05:26:17.603Z,90.00
2018-03-26T05:27:18.312Z,95.00
2018-03-26T05:28:19.023Z,99.00
2018-03-26T05:29:19.737Z,97.00
2018-03-26T05:30:20.452Z,101.00
2018-03-26T05:31:21.166Z,90.00
2018-03-26T05:32:21.876Z,96.00
2018-03-26T05:33:22.587Z,97.00
2018-03-26T05:34:23.300Z,94.00
2018-03-26T05:35:24.021Z,75.00
2018-03-26T05:36:24.748Z,73.00
2018-03-26T05:37:25.460Z,99.00
2018-03-26T05:38:26.173Z,109.00
2018-03-26T05:39:26.883Z,63.00
2018-03-26T05:40:27.598Z,78.00
2018-03-26T05:41:28.307Z,91.00
2018-03-26T05:42:29.018Z,87.00
2018-03-26T05:43:29.742Z,86.00
2018-03-26T05:44:30.455Z,95.00
2018-03-26T05:45:31.174Z,86.00
2018-03-26T05:46:31.893Z,80.00
2018-03-26T05:47:32.605Z,84.00
2018-03-26T05:48:33.318Z,76.00
2018-03-26T05:49:34.030Z,84.00
2018-03-26T05:50:34.742Z,71.00
2018-03-26T05:51:35.455Z,66.00
2018-03-26T05:52:36.167Z,81.00
2018-03-26T05:53:36.892Z,70.00
2018-03-26T05:54:37.606Z,69.00
2018-03-26T05:55:38.319Z,85.00
2018-03-26T05:56:39.030Z,70.00
2018-03-26T05:57:39.742Z,80.00
2018-03-26T05:58:40.453Z,84.00
2018-03-26T05:59:41.177Z,78.00
2018-03-26T06:00:41.893Z,68.00
2018-03-26T06:01:42.600Z,64.00
2018-03-26T06:02:43.313Z,64.00
2018-03-26T06:03:44.025Z,85.00
2018-03-26T06:04:44.738Z,79.00
2018-03-26T06:05:45.452Z,71.00
2018-03-26T06:06:46.166Z,68.00
2018-03-26T06:07:46.879Z,81.00
2018-03-26T06:08:47.606Z,63.00
2018-03-26T06:09:48.318Z,59.00
2018-03-26T06:10:49.041Z,75.00
2018-03-26T06:11:49.754Z,80.00
2018-03-26T06:12:50.470Z,99.00
2018-03-26T06:13:51.183Z,89.00
2018-03-26T06:14:51.897Z,75.00
2018-03-26T06:15:52.623Z,78.00
2018-03-26T06:16:53.336Z,69.00
2018-03-26T06:17:54.048Z,85.00
2018-03-26T06:18:54.762Z,78.00
2018-03-26T06:19:55.477Z,82.00
2018-03-26T06:20:56.201Z,87.00
2018-03-26T06:21:56.914Z,79.00
2018-03-26T06:22:57.646Z,93.00
2018-03-26T06:23:58.353Z,86.00
2018-03-26T06:24:59.067Z,87.00
2018-03-26T06:25:59.782Z,83.00
2018-03-26T06:27:00.494Z,82.00
2018-03-26T06:28:01.209Z,64.00
2018-03-26T06:29:01.920Z,87.00
2018-03-26T06:30:02.636Z,81.00
2018-03-26T06:31:03.349Z,93.00
2018-03-26T06:32:04.076Z,95.00
2018-03-26T06:33:04.792Z,101.00
2018-03-26T06:34:05.509Z,79.00
2018-03-26T06:35:06.236Z,85.00
2018-03-26T06:36:06.951Z,52.00
2018-03-26T06:37:07.667Z,106.00
2018-03-26T06:38:08.382Z,95.00
2018-03-26T06:39:09.096Z,66.00
2018-03-26T06:40:09.823Z,78.00
2018-03-26T06:41:10.537Z,98.00
2018-03-26T06:42:11.266Z,92.00
2018-03-26T06:43:11.981Z,84.00
2018-03-26T06:44:12.733Z,68.00
2018-03-26T06:45:13.427Z,67.00
2018-03-26T06:46:14.140Z,77.00
2018-03-26T06:47:14.941Z,67.00
2018-03-26T06:48:15.570Z,76.00
2018-03-26T06:49:16.286Z,66.00
2018-03-26T06:50:17.001Z,56.00
2018-03-26T06:51:17.717Z,83.00
2018-03-26T06:52:18.445Z,63.00
2018-03-26T06:53:19.160Z,72.00
2018-03-26T06:54:19.875Z,83.00
2018-03-26T06:55:20.605Z,82.00
2018-03-26T06:56:21.320Z,64.00
2018-03-26T06:57:22.036Z,92.00
2018-03-26T06:58:22.751Z,67.00
2018-03-26T06:59:23.467Z,63.00
2018-03-26T07:00:24.187Z,66.00
2018-03-26T07:01:24.898Z,55.00
2018-03-26T07:02:25.614Z,70.00
2018-03-26T07:03:26.341Z,74.00
2018-03-26T07:04:27.048Z,52.00
2018-03-26T07:05:27.762Z,65.00
2018-03-26T07:06:28.488Z,88.00
2018-03-26T07:07:29.219Z,99.00
2018-03-26T07:08:29.934Z,69.00
2018-03-26T07:09:30.650Z,59.00
2018-03-26T07:10:31.365Z,76.00
2018-03-26T07:11:32.097Z,76.00
2018-03-26T07:12:32.825Z,84.00
2018-03-26T07:13:33.531Z,81.00
2018-03-26T07:14:34.248Z,89.00
2018-03-26T07:15:34.971Z,76.00
2018-03-26T07:16:35.699Z,67.00
2018-03-26T07:17:36.416Z,68.00
2018-03-26T07:18:37.134Z,92.00
2018-03-26T07:19:37.853Z,78.00
2018-03-26T07:20:38.571Z,63.00
2018-03-26T07:21:39.349Z,84.00
2018-03-26T07:22:40.012Z,73.00
2018-03-26T07:23:40.733Z,67.00
2018-03-26T07:24:41.452Z,63.00
2018-03-26T07:25:42.174Z,65.00
2018-03-26T07:26:42.906Z,56.00
2018-03-26T07:27:43.627Z,47.00
2018-03-26T07:28:44.351Z,40.00
2018-03-26T07:29:45.086Z,51.00
2018-03-26T07:30:45.805Z,54.00
2018-03-26T07:31:46.531Z,64.00
2018-03-26T07:32:47.255Z,58.00
2018-03-26T07:33:47.978Z,60.00
2018-03-26T07:34:48.702Z,49.00
2018-03-26T07:35:49.428Z,49.00
2018-03-26T07:36:50.163Z,49.00
2018-03-26T07:37:50.894Z,44.00
2018-03-26T07:38:51.617Z,42.00
2018-03-26T07:39:52.344Z,62.00
2018-03-26T07:40:53.066Z,49.00
2018-03-26T07:41:53.800Z,55.00
2018-03-26T07:42:54.525Z,40.00
2018-03-26T07:43:55.255Z,71.00
2018-03-26T07:44:55.977Z,58.00
2018-03-26T07:45:56.702Z,48.00
2018-03-26T07:46:57.427Z,53.00
2018-03-26T07:47:58.151Z,42.00
2018-03-26T07:48:58.893Z,44.00
2018-03-26T07:49:59.618Z,41.00
2018-03-26T07:51:00.343Z,41.00
2018-03-26T07:52:01.083Z,52.00
2018-03-26T07:53:01.810Z,45.00
2018-03-26T07:54:02.536Z,52.00
2018-03-26T07:55:03.264Z,48.00
2018-03-26T07:56:04.003Z,49.00
2018-03-26T07:57:04.730Z,45.00
2018-03-26T07:58:05.456Z,46.00
2018-03-26T07:59:06.216Z,48.00
2018-03-26T08:00:06.926Z,47.00
2018-03-26T08:01:07.656Z,35.00
2018-03-26T08:02:08.382Z,42.00
2018-03-26T08:03:09.104Z,39.00
2018-03-26T08:04:09.836Z,44.00
2018-03-26T08:05:10.561Z,38.00
2018-03-26T08:06:11.291Z,38.00
2018-03-26T08:07:12.018Z,39.00
2018-03-26T08:08:12.747Z,32.00
2018-03-26T08:09:13.474Z,30.00
2018-03-26T08:10:14.203Z,25.00
2018-03-26T08:11:14.933Z,33.00
2018-03-26T08:12:15.665Z,39.00
2018-03-26T08:13:16.392Z,21.00
2018-03-26T08:14:17.120Z,26.00
2018-03-26T08:15:17.863Z,34.00
2018-03-26T08:16:18.591Z,28.00
2018-03-26T08:17:19.374Z,24.00
2018-03-26T08:18:20.052Z,26.00
2018-03-26T08:19:20.781Z,34.00
2018-03-26T08:20:21.512Z,30.00
2018-03-26T08:21:22.255Z,30.00
2018-03-26T08:22:22.988Z,29.00
2018-03-26T08:23:23.719Z,27.00
2018-03-26T08:24:24.453Z,25.00
2018-03-26T08:25:25.184Z,29.00
2018-03-26T08:26:25.917Z,33.00
2018-03-26T08:27:26.652Z,30.00
2018-03-26T08:28:27.388Z,28.00
2018-03-26T08:29:28.119Z,38.00
2018-03-26T08:30:28.853Z,44.00
2018-03-26T08:31:29.582Z,39.00
2018-03-26T08:32:30.312Z,27.00
2018-03-26T08:33:31.044Z,30.00
2018-03-26T08:34:31.772Z,35.00
2018-03-26T08:35:32.503Z,33.00
2018-03-26T08:36:33.234Z,35.00
2018-03-26T08:37:33.964Z,37.00
2018-03-26T08:38:34.694Z,31.00
2018-03-26T08:39:35.422Z,35.00
2018-03-26T08:40:36.153Z,29.00
2018-03-26T08:41:36.901Z,28.00
2018-03-26T08:42:37.630Z,41.00
2018-03-26T08:43:38.371Z,43.00
2018-03-26T08:44:39.132Z,40.00
2018-03-26T08:45:39.833Z,28.00
2018-03-26T08:46:40.564Z,35.00
2018-03-26T08:47:41.293Z,39.00
2018-03-26T08:48:42.023Z,39.00
2018-03-26T08:49:42.830Z,39.00
2018-03-26T08:50:43.490Z,46.00
2018-03-26T08:51:44.236Z,30.00
2018-03-26T08:52:44.959Z,30.00
2018-03-26T08:53:45.702Z,26.00
2018-03-26T08:54:46.432Z,33.00
2018-03-26T08:55:47.161Z,29.00
2018-03-26T08:56:47.891Z,28.00
2018-03-26T08:57:48.623Z,34.00
2018-03-26T08:58:49.360Z,29.00
2018-03-26T08:59:50.098Z,33.00
2018-03-26T09:00:50.835Z,23.00
2018-03-26T09:01:51.582Z,27.00
2018-03-26T09:02:52.317Z,23.00
2018-03-26T09:03:53.054Z,20.00
2018-03-26T09:04:53.790Z,16.00
2018-03-26T09:05:54.527Z,22.00
2018-03-26T09:06:55.276Z,21.00
2018-03-26T09:07:56.015Z,19.00
2018-03-26T09:08:56.764Z,18.00
2018-03-26T09:09:57.509Z,14.00
2018-03-26T09:10:58.237Z,16.00
2018-03-26T09:11:59.021Z,26.00
2018-03-26T09:12:59.727Z,20.00
2018-03-26T09:14:00.462Z,21.00
2018-03-26T09:15:01.197Z,18.00
2018-03-26T09:16:01.932Z,20.00
2018-03-26T09:17:02.679Z,19.00
2018-03-26T09:18:03.417Z,21.00
2018-03-26T09:19:04.160Z,24.00
2018-03-26T09:20:04.896Z,17.00
2018-03-26T09:21:05.633Z,19.00
2018-03-26T09:22:06.378Z,20.00
2018-03-26T09:23:07.126Z,19.00
2018-03-26T09:24:07.863Z,15.00
2018-03-26T09:25:08.598Z,15.00
2018-03-26T09:26:09.333Z,17.00
2018-03-26T09:27:10.069Z,16.00
2018-03-26T09:28:10.802Z,15.00
2018-03-26T09:29:11.541Z,17.00
2018-03-26T09:30:12.274Z,20.00
2018-03-26T09:31:13.011Z,15.00
2018-03-26T09:32:13.745Z,22.00
2018-03-26T09:33:14.483Z,13.00
2018-03-26T09:34:15.217Z,18.00
2018-03-26T09:35:15.952Z,16.00
2018-03-26T09:36:16.688Z,14.00
2018-03-26T09:37:17.424Z,13.00
2018-03-26T09:38:18.173Z,16.00
2018-03-26T09:39:18.908Z,13.00
2018-03-26T09:40:19.646Z,19.00
2018-03-26T09:41:20.381Z,21.00
2018-03-26T09:42:21.118Z,19.00
2018-03-26T09:43:21.855Z,16.00
2018-03-26T09:44:22.603Z,15.00
2018-03-26T09:45:23.385Z,13.00
2018-03-26T09:46:24.075Z,18.00
2018-03-26T09:47:24.813Z,13.00
2018-03-26T09:48:25.559Z,22.00
2018-03-26T09:49:26.296Z,14.00
2018-03-26T09:50:27.045Z,18.00
2018-03-26T09:51:27.781Z,15.00
2018-03-26T09:52:28.529Z,17.00
2018-03-26T09:53:29.306Z,16.00
2018-03-26T09:54:30.009Z,21.00
2018-03-26T09:55:30.759Z,17.00
2018-03-26T09:56:31.506Z,27.00
2018-03-26T09:57:32.245Z,15.00
2018-03-26T09:58:32.981Z,16.00
2018-03-26T09:59:33.716Z,16.00
2018-03-26T10:00:34.451Z,14.00
2018-03-26T10:01:35.200Z,13.00
2018-03-26T10:02:35.949Z,20.00
2018-03-26T10:03:36.683Z,12.00
2018-03-26T10:04:37.420Z,15.00
2018-03-26T10:05:38.157Z,15.00
2018-03-26T10:06:38.901Z,17.00
2018-03-26T10:07:39.630Z,18.00
2018-03-26T10:08:40.372Z,16.00
2018-03-26T10:09:41.116Z,10.00
2018-03-26T10:10:41.853Z,16.00
2018-03-26T10:11:42.590Z,14.00
2018-03-26T10:12:43.338Z,21.00
2018-03-26T10:13:44.074Z,15.00
2018-03-26T10:14:44.823Z,17.00
2018-03-26T10:15:45.562Z,11.00
2018-03-26T10:16:46.296Z,12.00
2018-03-26T10:17:47.033Z,14.00
2018-03-26T10:18:47.781Z,14.00
2018-03-26T10:19:48.580Z,19.00
2018-03-26T10:20:49.255Z,19.00
2018-03-26T10:21:49.992Z,14.00
2018-03-26T10:22:50.730Z,13.00
2018-03-26T10:23:51.463Z,23.00
2018-03-26T10:24:52.202Z,16.00
2018-03-26T10:25:52.950Z,18.00
2018-03-26T10:26:53.690Z,23.00
2018-03-26T10:27:54.427Z,29.00
2018-03-26T10:28:55.166Z,19.00
2018-03-26T10:29:55.916Z,11.00
2018-03-26T10:30:56.663Z,16.00
2018-03-26T10:31:57.400Z,20.00
2018-03-26T10:32:58.135Z,13.00
2018-03-26T10:33:58.870Z,11.00
2018-03-26T10:34:59.607Z,14.00
2018-03-26T10:36:00.343Z,14.00
2018-03-26T10:37:01.078Z,24.00
2018-03-26T10:38:01.815Z,13.00
2018-03-26T10:39:02.549Z,15.00
2018-03-26T10:40:03.287Z,14.00
2018-03-26T10:41:04.023Z,14.00
2018-03-26T10:42:04.759Z,14.00
2018-03-26T10:43:05.498Z,10.00
2018-03-26T10:44:06.228Z,16.00
2018-03-26T10:45:06.963Z,15.00
2018-03-26T10:46:07.713Z,15.00
2018-03-26T10:47:08.450Z,14.00
2018-03-26T10:48:09.183Z,15.00
2018-03-26T10:49:09.921Z,14.00
2018-03-26T10:50:10.657Z,13.00
2018-03-26T10:51:11.393Z,9.00
2018-03-26T10:52:12.128Z,11.00
2018-03-26T10:53:12.864Z,11.00
2018-03-26T10:54:13.601Z,9.00
2018-03-26T10:55:14.348Z,11.00
2018-03-26T10:56:15.094Z,18.00
2018-03-26T10:57:15.832Z,12.00
2018-03-26T10:58:16.567Z,11.00
2018-03-26T10:59:17.304Z,15.00
2018-03-26T11:00:18.058Z,14.00
2018-03-26T11:01:18.797Z,7.00
2018-03-26T11:02:19.532Z,9.00
2018-03-26T11:03:20.280Z,11.00
2018-03-26T11:04:21.016Z,12.00
2018-03-26T11:05:21.753Z,13.00
2018-03-26T11:06:22.488Z,14.00
2018-03-26T11:07:23.225Z,12.00
2018-03-26T11:08:23.961Z,12.00
2018-03-26T11:09:24.697Z,15.00
2018-03-26T11:10:25.433Z,17.00
2018-03-26T11:11:26.168Z,21.00
2018-03-26T11:12:26.915Z,12.00
2018-03-26T11:13:27.649Z,13.00
2018-03-26T11:14:28.383Z,12.00
2018-03-26T11:15:29.121Z,13.00
2018-03-26T11:16:29.855Z,19.00
2018-03-26T11:17:30.591Z,10.00
2018-03-26T11:18:31.330Z,13.00
2018-03-26T11:19:32.065Z,12.00
2018-03-26T11:20:32.821Z,17.00
2018-03-26T11:21:33.536Z,6.00
2018-03-26T11:22:34.284Z,13.00
2018-03-26T11:23:35.040Z,8.00
2018-03-26T11:24:35.771Z,13.00
2018-03-26T11:25:36.518Z,9.00
2018-03-26T11:26:37.256Z,13.00
2018-03-26T11:27:37.992Z,12.00
2018-03-26T11:28:38.738Z,8.00
2018-03-26T11:29:39.490Z,15.00
2018-03-26T11:30:40.225Z,12.00
2018-03-26T11:31:40.962Z,11.00
2018-03-26T11:32:41.700Z,16.00
2018-03-26T11:33:42.452Z,14.00
2018-03-26T11:34:43.197Z,8.00
2018-03-26T11:35:43.933Z,12.00
2018-03-26T11:36:44.680Z,9.00
2018-03-26T11:37:45.429Z,12.00
2018-03-26T11:38:46.183Z,10.00
2018-03-26T11:39:46.916Z,10.00
2018-03-26T11:40:47.651Z,14.00
2018-03-26T11:41:48.391Z,8.00
2018-03-26T11:42:49.132Z,10.00
2018-03-26T11:43:49.882Z,10.00
2018-03-26T11:44:50.619Z,11.00
2018-03-26T11:45:51.354Z,11.00
2018-03-26T11:46:52.105Z,14.00
2018-03-26T11:47:52.840Z,8.00
2018-03-26T11:48:53.578Z,24.00
2018-03-26T11:49:54.314Z,13.00
2018-03-26T11:50:55.059Z,10.00
2018-03-26T11:51:55.798Z,13.00
2018-03-26T11:52:56.537Z,20.00
2018-03-26T11:53:57.273Z,10.00
2018-03-26T11:54:58.009Z,12.00
2018-03-26T11:55:58.749Z,7.00
2018-03-26T11:56:59.478Z,11.00
2018-03-26T11:58:00.219Z,12.00
2018-03-26T11:59:00.956Z,10.00
2018-03-26T12:00:01.696Z,13.00
2018-03-26T12:01:02.436Z,11.00
2018-03-26T12:02:03.188Z,10.00
2018-03-26T12:03:03.927Z,12.00
2018-03-26T12:04:04.664Z,12.00
2018-03-26T12:05:05.413Z,11.00
2018-03-26T12:06:06.159Z,12.00
2018-03-26T12:07:06.902Z,15.00
2018-03-26T12:08:07.649Z,10.00
2018-03-26T12:09:08.381Z,14.00
2018-03-26T12:10:09.117Z,10.00
2018-03-26T12:11:09.850Z,9.00
2018-03-26T12:12:10.583Z,10.00
2018-03-26T12:13:11.320Z,12.00
2018-03-26T12:14:12.053Z,9.00
2018-03-26T12:15:12.790Z,8.00
2018-03-26T12:16:13.522Z,11.00
2018-03-26T12:17:14.270Z,13.00
2018-03-26T12:18:15.004Z,13.00
2018-03-26T12:19:15.740Z,13.00
2018-03-26T12:20:16.479Z,10.00
2018-03-26T12:21:17.222Z,8.00
2018-03-26T12:22:17.957Z,11.00
2018-03-26T12:23:18.693Z,10.00
2018-03-26T12:24:19.428Z,9.00
2018-03-26T12:25:20.193Z,10.00
2018-03-26T12:26:20.900Z,10.00
2018-03-26T12:27:21.637Z,13.00
2018-03-26T12:28:22.372Z,34.00
2018-03-26T12:29:23.109Z,36.00
2018-03-26T12:30:23.849Z,10.00
2018-03-26T12:31:24.582Z,9.00
2018-03-26T12:32:25.373Z,10.00
2018-03-26T12:33:26.083Z,11.00
2018-03-26T12:34:26.823Z,8.00
2018-03-26T12:35:27.564Z,10.00
2018-03-26T12:36:28.303Z,11.00
2018-03-26T12:37:29.045Z,18.00
2018-03-26T12:38:29.785Z,9.00
2018-03-26T12:39:30.538Z,8.00
2018-03-26T12:40:31.292Z,10.00
2018-03-26T12:41:32.036Z,17.00
2018-03-26T12:42:32.773Z,17.00
2018-03-26T12:43:33.504Z,5.00
2018-03-26T12:44:34.244Z,15.00
2018-03-26T12:45:34.981Z,13.00
2018-03-26T12:46:35.732Z,11.00
2018-03-26T12:47:36.468Z,9.00
2018-03-26T12:48:37.221Z,9.00
2018-03-26T12:49:37.956Z,9.00
2018-03-26T12:50:38.694Z,16.00
2018-03-26T12:51:39.433Z,6.00
2018-03-26T12:52:40.186Z,13.00